sensor_id;sensor_type;location;lat;lon;timestamp;P1;durP1;ratioP1;P2;durP2;ratioP2
1955;SDS011;978;48.314;11.562;2022-07-29T00:01:15;11.97;;;2.87;;
1955;SDS011;978;48.314;11.562;2022-07-29T00:03:42;11.80;;;2.50;;
1955;SDS011;978;48.314;11.562;2022-07-29T00:06:09;11.90;;;2.30;;
1955;SDS011;978;48.314;11.562;2022-07-29T00:08:37;11.90;;;2.50;;
1955;SDS011;978;48.314;11.562;2022-07-29T00:11:04;11.30;;;2.17;;
1955;SDS011;978;48.314;11.562;2022-07-29T00:13:30;11.50;;;2.30;;
1955;SDS011;978;48.314;11.562;2022-07-29T00:15:57;11.17;;;2.10;;
1955;SDS011;978;48.314;11.562;2022-07-29T00:18:24;12.10;;;2.20;;
1955;SDS011;978;48.314;11.562;2022-07-29T00:20:51;12.80;;;3.27;;
1955;SDS011;978;48.314;11.562;2022-07-29T00:23:18;11.67;;;2.33;;
1955;SDS011;978;48.314;11.562;2022-07-29T00:25:46;11.90;;;2.20;;
1955;SDS011;978;48.314;11.562;2022-07-29T00:28:12;11.30;;;2.30;;
1955;SDS011;978;48.314;11.562;2022-07-29T00:30:39;11.80;;;2.27;;
1955;SDS011;978;48.314;11.562;2022-07-29T00:33:07;11.70;;;2.33;;
1955;SDS011;978;48.314;11.562;2022-07-29T00:35:34;11.37;;;1.80;;
1955;SDS011;978;48.314;11.562;2022-07-29T00:38:10;12.57;;;3.13;;
1955;SDS011;978;48.314;11.562;2022-07-29T00:40:37;11.87;;;2.27;;
1955;SDS011;978;48.314;11.562;2022-07-29T00:43:06;12.00;;;1.97;;
1955;SDS011;978;48.314;11.562;2022-07-29T00:45:33;12.10;;;2.37;;
1955;SDS011;978;48.314;11.562;2022-07-29T00:48:00;11.90;;;2.53;;
1955;SDS011;978;48.314;11.562;2022-07-29T00:50:29;11.97;;;2.40;;
1955;SDS011;978;48.314;11.562;2022-07-29T00:52:57;11.70;;;2.30;;
1955;SDS011;978;48.314;11.562;2022-07-29T00:55:24;11.53;;;1.80;;
1955;SDS011;978;48.314;11.562;2022-07-29T00:57:51;12.63;;;2.30;;
1955;SDS011;978;48.314;11.562;2022-07-29T01:00:20;11.87;;;1.70;;
1955;SDS011;978;48.314;11.562;2022-07-29T01:02:49;11.37;;;1.80;;
1955;SDS011;978;48.314;11.562;2022-07-29T01:05:17;11.67;;;1.93;;
1955;SDS011;978;48.314;11.562;2022-07-29T01:07:45;11.67;;;1.80;;
1955;SDS011;978;48.314;11.562;2022-07-29T01:10:15;12.23;;;2.40;;
1955;SDS011;978;48.314;11.562;2022-07-29T01:12:43;11.90;;;2.53;;
1955;SDS011;978;48.314;11.562;2022-07-29T01:15:12;12.10;;;2.60;;
1955;SDS011;978;48.314;11.562;2022-07-29T01:17:43;11.80;;;2.00;;
1955;SDS011;978;48.314;11.562;2022-07-29T01:20:17;11.40;;;1.97;;
1955;SDS011;978;48.314;11.562;2022-07-29T01:23:13;12.50;;;2.00;;
1955;SDS011;978;48.314;11.562;2022-07-29T01:26:13;12.20;;;1.67;;
1955;SDS011;978;48.314;11.562;2022-07-29T01:29:01;12.63;;;2.77;;
1955;SDS011;978;48.314;11.562;2022-07-29T01:31:31;12.00;;;2.13;;
1955;SDS011;978;48.314;11.562;2022-07-29T01:34:05;11.53;;;1.90;;
1955;SDS011;978;48.314;11.562;2022-07-29T01:36:37;11.63;;;2.00;;
1955;SDS011;978;48.314;11.562;2022-07-29T01:39:10;11.53;;;1.90;;
1955;SDS011;978;48.314;11.562;2022-07-29T01:41:40;12.33;;;2.87;;
1955;SDS011;978;48.314;11.562;2022-07-29T01:44:16;11.70;;;1.80;;
1955;SDS011;978;48.314;11.562;2022-07-29T01:46:49;12.00;;;2.00;;
1955;SDS011;978;48.314;11.562;2022-07-29T01:49:20;12.40;;;2.60;;
1955;SDS011;978;48.314;11.562;2022-07-29T01:51:50;12.40;;;3.00;;
1955;SDS011;978;48.314;11.562;2022-07-29T01:54:20;11.60;;;1.90;;
1955;SDS011;978;48.314;11.562;2022-07-29T01:56:51;11.50;;;2.00;;
1955;SDS011;978;48.314;11.562;2022-07-29T01:59:21;13.10;;;2.40;;
1955;SDS011;978;48.314;11.562;2022-07-29T02:01:49;12.10;;;2.30;;
1955;SDS011;978;48.314;11.562;2022-07-29T02:04:19;11.80;;;2.50;;
1955;SDS011;978;48.314;11.562;2022-07-29T02:06:47;11.43;;;2.07;;
1955;SDS011;978;48.314;11.562;2022-07-29T02:09:17;12.20;;;2.17;;
1955;SDS011;978;48.314;11.562;2022-07-29T02:11:47;11.80;;;2.13;;
1955;SDS011;978;48.314;11.562;2022-07-29T02:14:17;11.67;;;2.10;;
1955;SDS011;978;48.314;11.562;2022-07-29T02:16:46;12.00;;;2.27;;
1955;SDS011;978;48.314;11.562;2022-07-29T02:19:14;11.73;;;2.40;;
1955;SDS011;978;48.314;11.562;2022-07-29T02:21:45;11.73;;;2.10;;
1955;SDS011;978;48.314;11.562;2022-07-29T02:24:13;11.53;;;2.57;;
1955;SDS011;978;48.314;11.562;2022-07-29T02:26:42;11.83;;;1.87;;
1955;SDS011;978;48.314;11.562;2022-07-29T02:29:10;11.30;;;1.70;;
1955;SDS011;978;48.314;11.562;2022-07-29T02:31:38;11.87;;;2.23;;
1955;SDS011;978;48.314;11.562;2022-07-29T02:34:09;12.00;;;2.20;;
1955;SDS011;978;48.314;11.562;2022-07-29T02:36:37;11.70;;;2.17;;
1955;SDS011;978;48.314;11.562;2022-07-29T02:39:05;11.57;;;2.23;;
1955;SDS011;978;48.314;11.562;2022-07-29T02:41:35;12.20;;;2.20;;
1955;SDS011;978;48.314;11.562;2022-07-29T02:44:08;11.70;;;1.90;;
1955;SDS011;978;48.314;11.562;2022-07-29T02:46:36;12.20;;;2.40;;
1955;SDS011;978;48.314;11.562;2022-07-29T02:49:13;12.07;;;2.20;;
1955;SDS011;978;48.314;11.562;2022-07-29T02:51:43;11.73;;;2.47;;
1955;SDS011;978;48.314;11.562;2022-07-29T02:54:17;12.17;;;2.47;;
1955;SDS011;978;48.314;11.562;2022-07-29T02:56:48;11.90;;;2.13;;
1955;SDS011;978;48.314;11.562;2022-07-29T02:59:19;11.80;;;2.03;;
1955;SDS011;978;48.314;11.562;2022-07-29T03:01:51;10.97;;;2.33;;
1955;SDS011;978;48.314;11.562;2022-07-29T03:04:21;11.87;;;2.13;;
1955;SDS011;978;48.314;11.562;2022-07-29T03:06:50;12.37;;;2.70;;
1955;SDS011;978;48.314;11.562;2022-07-29T03:09:18;12.47;;;2.50;;
1955;SDS011;978;48.314;11.562;2022-07-29T03:11:45;11.80;;;2.53;;
1955;SDS011;978;48.314;11.562;2022-07-29T03:14:13;11.80;;;2.30;;
1955;SDS011;978;48.314;11.562;2022-07-29T03:16:40;12.07;;;2.47;;
1955;SDS011;978;48.314;11.562;2022-07-29T03:19:07;11.80;;;2.27;;
1955;SDS011;978;48.314;11.562;2022-07-29T03:21:36;13.10;;;2.43;;
1955;SDS011;978;48.314;11.562;2022-07-29T03:24:02;13.20;;;2.17;;
1955;SDS011;978;48.314;11.562;2022-07-29T03:26:29;12.13;;;2.00;;
1955;SDS011;978;48.314;11.562;2022-07-29T03:28:56;12.37;;;2.47;;
1955;SDS011;978;48.314;11.562;2022-07-29T03:31:23;11.87;;;2.20;;
1955;SDS011;978;48.314;11.562;2022-07-29T03:33:50;12.77;;;2.57;;
1955;SDS011;978;48.314;11.562;2022-07-29T03:36:17;11.53;;;2.10;;
1955;SDS011;978;48.314;11.562;2022-07-29T03:38:45;11.50;;;1.93;;
1955;SDS011;978;48.314;11.562;2022-07-29T03:41:14;12.13;;;2.37;;
1955;SDS011;978;48.314;11.562;2022-07-29T03:43:41;11.80;;;2.43;;
1955;SDS011;978;48.314;11.562;2022-07-29T03:46:10;11.90;;;1.60;;
1955;SDS011;978;48.314;11.562;2022-07-29T03:48:40;11.83;;;2.10;;
1955;SDS011;978;48.314;11.562;2022-07-29T03:51:12;11.50;;;1.90;;
1955;SDS011;978;48.314;11.562;2022-07-29T03:53:39;12.07;;;1.80;;
1955;SDS011;978;48.314;11.562;2022-07-29T03:56:07;12.17;;;2.43;;
1955;SDS011;978;48.314;11.562;2022-07-29T03:58:38;11.90;;;2.20;;
1955;SDS011;978;48.314;11.562;2022-07-29T04:01:05;11.80;;;1.90;;
1955;SDS011;978;48.314;11.562;2022-07-29T04:03:32;12.33;;;2.30;;
1955;SDS011;978;48.314;11.562;2022-07-29T04:06:00;11.63;;;1.70;;
1955;SDS011;978;48.314;11.562;2022-07-29T04:08:30;11.60;;;1.90;;
1955;SDS011;978;48.314;11.562;2022-07-29T04:10:57;11.80;;;2.10;;
1955;SDS011;978;48.314;11.562;2022-07-29T04:13:25;11.67;;;2.20;;
1955;SDS011;978;48.314;11.562;2022-07-29T04:15:52;11.53;;;2.00;;
1955;SDS011;978;48.314;11.562;2022-07-29T04:18:19;11.40;;;1.80;;
1955;SDS011;978;48.314;11.562;2022-07-29T04:20:46;12.10;;;2.00;;
1955;SDS011;978;48.314;11.562;2022-07-29T04:23:12;12.20;;;2.07;;
1955;SDS011;978;48.314;11.562;2022-07-29T04:25:39;11.60;;;1.50;;
1955;SDS011;978;48.314;11.562;2022-07-29T04:28:07;11.70;;;1.70;;
1955;SDS011;978;48.314;11.562;2022-07-29T04:30:38;11.53;;;1.60;;
1955;SDS011;978;48.314;11.562;2022-07-29T04:33:06;12.30;;;2.10;;
1955;SDS011;978;48.314;11.562;2022-07-29T04:35:34;11.97;;;2.10;;
1955;SDS011;978;48.314;11.562;2022-07-29T04:38:02;12.00;;;2.10;;
1955;SDS011;978;48.314;11.562;2022-07-29T04:40:29;13.50;;;2.00;;
1955;SDS011;978;48.314;11.562;2022-07-29T04:42:58;12.00;;;2.10;;
1955;SDS011;978;48.314;11.562;2022-07-29T04:45:25;11.50;;;1.70;;
1955;SDS011;978;48.314;11.562;2022-07-29T04:47:53;11.47;;;1.80;;
1955;SDS011;978;48.314;11.562;2022-07-29T04:50:20;12.00;;;1.70;;
1955;SDS011;978;48.314;11.562;2022-07-29T04:52:47;12.00;;;2.10;;
1955;SDS011;978;48.314;11.562;2022-07-29T04:55:13;11.53;;;1.60;;
1955;SDS011;978;48.314;11.562;2022-07-29T04:57:40;11.80;;;1.63;;
1955;SDS011;978;48.314;11.562;2022-07-29T05:00:07;11.60;;;2.43;;
1955;SDS011;978;48.314;11.562;2022-07-29T05:02:36;11.93;;;1.70;;
1955;SDS011;978;48.314;11.562;2022-07-29T05:05:04;11.83;;;1.80;;
1955;SDS011;978;48.314;11.562;2022-07-29T05:07:32;11.87;;;1.50;;
1955;SDS011;978;48.314;11.562;2022-07-29T05:09:58;13.13;;;2.37;;
1955;SDS011;978;48.314;11.562;2022-07-29T05:12:25;11.70;;;2.30;;
1955;SDS011;978;48.314;11.562;2022-07-29T05:14:52;11.67;;;1.70;;
1955;SDS011;978;48.314;11.562;2022-07-29T05:17:19;11.37;;;1.43;;
1955;SDS011;978;48.314;11.562;2022-07-29T05:19:46;11.80;;;1.60;;
1955;SDS011;978;48.314;11.562;2022-07-29T05:22:14;11.63;;;1.60;;
1955;SDS011;978;48.314;11.562;2022-07-29T05:24:41;12.00;;;1.70;;
1955;SDS011;978;48.314;11.562;2022-07-29T05:27:07;11.50;;;1.70;;
1955;SDS011;978;48.314;11.562;2022-07-29T05:29:34;11.53;;;2.00;;
1955;SDS011;978;48.314;11.562;2022-07-29T05:32:01;11.63;;;2.03;;
1955;SDS011;978;48.314;11.562;2022-07-29T05:34:28;11.70;;;1.77;;
1955;SDS011;978;48.314;11.562;2022-07-29T05:36:55;11.77;;;1.60;;
1955;SDS011;978;48.314;11.562;2022-07-29T05:39:23;12.10;;;2.43;;
1955;SDS011;978;48.314;11.562;2022-07-29T05:41:50;11.70;;;1.70;;
1955;SDS011;978;48.314;11.562;2022-07-29T05:44:17;12.30;;;2.27;;
1955;SDS011;978;48.314;11.562;2022-07-29T05:46:44;11.27;;;1.67;;
1955;SDS011;978;48.314;11.562;2022-07-29T05:49:10;11.70;;;1.80;;
1955;SDS011;978;48.314;11.562;2022-07-29T05:51:37;13.30;;;2.17;;
1955;SDS011;978;48.314;11.562;2022-07-29T05:54:04;12.17;;;2.10;;
1955;SDS011;978;48.314;11.562;2022-07-29T05:56:32;11.77;;;1.90;;
1955;SDS011;978;48.314;11.562;2022-07-29T05:58:59;12.20;;;1.80;;
1955;SDS011;978;48.314;11.562;2022-07-29T06:01:26;11.90;;;1.90;;
1955;SDS011;978;48.314;11.562;2022-07-29T06:03:53;12.13;;;2.10;;
1955;SDS011;978;48.314;11.562;2022-07-29T06:06:19;12.73;;;2.40;;
1955;SDS011;978;48.314;11.562;2022-07-29T06:08:46;12.07;;;1.70;;
1955;SDS011;978;48.314;11.562;2022-07-29T06:11:13;12.00;;;1.70;;
1955;SDS011;978;48.314;11.562;2022-07-29T06:13:41;11.53;;;2.00;;
1955;SDS011;978;48.314;11.562;2022-07-29T06:16:08;12.70;;;2.37;;
1955;SDS011;978;48.314;11.562;2022-07-29T06:18:34;11.80;;;2.43;;
1955;SDS011;978;48.314;11.562;2022-07-29T06:21:01;11.60;;;2.40;;
1955;SDS011;978;48.314;11.562;2022-07-29T06:23:34;12.77;;;2.10;;
1955;SDS011;978;48.314;11.562;2022-07-29T06:26:01;11.97;;;2.70;;
1955;SDS011;978;48.314;11.562;2022-07-29T06:28:28;11.80;;;2.40;;
1955;SDS011;978;48.314;11.562;2022-07-29T06:30:56;12.67;;;2.70;;
1955;SDS011;978;48.314;11.562;2022-07-29T06:33:23;12.30;;;2.57;;
1955;SDS011;978;48.314;11.562;2022-07-29T06:35:50;11.73;;;1.90;;
1955;SDS011;978;48.314;11.562;2022-07-29T06:38:16;11.83;;;2.30;;
1955;SDS011;978;48.314;11.562;2022-07-29T06:40:43;11.53;;;2.00;;
1955;SDS011;978;48.314;11.562;2022-07-29T06:43:30;12.20;;;2.10;;
1955;SDS011;978;48.314;11.562;2022-07-29T06:46:02;12.67;;;2.70;;
1955;SDS011;978;48.314;11.562;2022-07-29T06:48:30;12.10;;;1.87;;
1955;SDS011;978;48.314;11.562;2022-07-29T06:50:58;12.93;;;2.77;;
1955;SDS011;978;48.314;11.562;2022-07-29T06:53:25;12.03;;;2.20;;
1955;SDS011;978;48.314;11.562;2022-07-29T06:55:52;11.80;;;2.00;;
1955;SDS011;978;48.314;11.562;2022-07-29T06:58:19;13.53;;;2.50;;
1955;SDS011;978;48.314;11.562;2022-07-29T07:00:46;12.00;;;2.10;;
1955;SDS011;978;48.314;11.562;2022-07-29T07:03:15;11.83;;;1.80;;
1955;SDS011;978;48.314;11.562;2022-07-29T07:05:43;12.40;;;2.80;;
1955;SDS011;978;48.314;11.562;2022-07-29T07:08:10;11.60;;;1.77;;
1955;SDS011;978;48.314;11.562;2022-07-29T07:10:37;11.43;;;2.23;;
1955;SDS011;978;48.314;11.562;2022-07-29T07:13:04;11.77;;;2.37;;
1955;SDS011;978;48.314;11.562;2022-07-29T07:15:32;11.70;;;1.90;;
1955;SDS011;978;48.314;11.562;2022-07-29T07:17:59;11.97;;;1.80;;
1955;SDS011;978;48.314;11.562;2022-07-29T07:20:27;11.80;;;1.80;;
1955;SDS011;978;48.314;11.562;2022-07-29T07:22:54;12.00;;;1.87;;
1955;SDS011;978;48.314;11.562;2022-07-29T07:25:21;12.77;;;2.43;;
1955;SDS011;978;48.314;11.562;2022-07-29T07:27:47;11.70;;;1.70;;
1955;SDS011;978;48.314;11.562;2022-07-29T07:30:14;12.40;;;2.40;;
1955;SDS011;978;48.314;11.562;2022-07-29T07:32:41;12.00;;;2.33;;
1955;SDS011;978;48.314;11.562;2022-07-29T07:35:08;11.87;;;2.30;;
1955;SDS011;978;48.314;11.562;2022-07-29T07:37:38;11.40;;;1.80;;
1955;SDS011;978;48.314;11.562;2022-07-29T07:40:06;11.37;;;1.67;;
1955;SDS011;978;48.314;11.562;2022-07-29T07:42:34;12.73;;;2.20;;
1955;SDS011;978;48.314;11.562;2022-07-29T07:45:00;11.70;;;2.10;;
1955;SDS011;978;48.314;11.562;2022-07-29T07:47:27;12.00;;;2.20;;
1955;SDS011;978;48.314;11.562;2022-07-29T07:49:54;11.70;;;2.20;;
1955;SDS011;978;48.314;11.562;2022-07-29T07:52:21;12.00;;;2.00;;
1955;SDS011;978;48.314;11.562;2022-07-29T07:54:49;12.13;;;1.80;;
1955;SDS011;978;48.314;11.562;2022-07-29T07:57:16;11.77;;;1.80;;
1955;SDS011;978;48.314;11.562;2022-07-29T07:59:43;11.63;;;2.00;;
1955;SDS011;978;48.314;11.562;2022-07-29T08:02:10;11.30;;;1.97;;
1955;SDS011;978;48.314;11.562;2022-07-29T08:04:37;12.13;;;1.83;;
1955;SDS011;978;48.314;11.562;2022-07-29T08:07:05;11.90;;;1.97;;
1955;SDS011;978;48.314;11.562;2022-07-29T08:09:33;12.03;;;2.10;;
1955;SDS011;978;48.314;11.562;2022-07-29T08:12:01;11.77;;;1.60;;
1955;SDS011;978;48.314;11.562;2022-07-29T08:14:30;12.60;;;2.83;;
1955;SDS011;978;48.314;11.562;2022-07-29T08:16:58;11.97;;;2.00;;
1955;SDS011;978;48.314;11.562;2022-07-29T08:19:25;12.10;;;2.30;;
1955;SDS011;978;48.314;11.562;2022-07-29T08:21:52;12.20;;;1.93;;
1955;SDS011;978;48.314;11.562;2022-07-29T08:24:19;11.73;;;2.00;;
1955;SDS011;978;48.314;11.562;2022-07-29T08:27:05;12.50;;;2.10;;
1955;SDS011;978;48.314;11.562;2022-07-29T08:29:32;12.57;;;2.50;;
1955;SDS011;978;48.314;11.562;2022-07-29T08:31:59;12.70;;;2.67;;
1955;SDS011;978;48.314;11.562;2022-07-29T08:34:25;13.00;;;2.60;;
1955;SDS011;978;48.314;11.562;2022-07-29T08:36:53;12.30;;;2.00;;
1955;SDS011;978;48.314;11.562;2022-07-29T08:39:21;11.63;;;2.00;;
1955;SDS011;978;48.314;11.562;2022-07-29T08:41:48;11.80;;;1.90;;
1955;SDS011;978;48.314;11.562;2022-07-29T08:44:17;12.70;;;2.73;;
1955;SDS011;978;48.314;11.562;2022-07-29T08:46:44;12.17;;;2.23;;
1955;SDS011;978;48.314;11.562;2022-07-29T08:49:11;12.03;;;2.13;;
1955;SDS011;978;48.314;11.562;2022-07-29T08:51:38;11.87;;;1.83;;
1955;SDS011;978;48.314;11.562;2022-07-29T08:54:06;12.30;;;2.53;;
1955;SDS011;978;48.314;11.562;2022-07-29T08:56:35;11.77;;;2.00;;
1955;SDS011;978;48.314;11.562;2022-07-29T08:59:02;11.93;;;1.90;;
1955;SDS011;978;48.314;11.562;2022-07-29T09:01:32;11.83;;;2.23;;
1955;SDS011;978;48.314;11.562;2022-07-29T09:04:00;12.37;;;2.97;;
1955;SDS011;978;48.314;11.562;2022-07-29T09:06:31;11.90;;;2.30;;
1955;SDS011;978;48.314;11.562;2022-07-29T09:09:00;13.00;;;2.80;;
1955;SDS011;978;48.314;11.562;2022-07-29T09:11:27;12.27;;;2.80;;
1955;SDS011;978;48.314;11.562;2022-07-29T09:13:54;12.20;;;2.07;;
1955;SDS011;978;48.314;11.562;2022-07-29T09:16:21;11.57;;;1.70;;
1955;SDS011;978;48.314;11.562;2022-07-29T09:18:49;11.73;;;1.93;;
1955;SDS011;978;48.314;11.562;2022-07-29T09:21:16;11.87;;;2.07;;
1955;SDS011;978;48.314;11.562;2022-07-29T09:24:05;12.40;;;2.27;;
1955;SDS011;978;48.314;11.562;2022-07-29T09:26:33;11.70;;;1.63;;
1955;SDS011;978;48.314;11.562;2022-07-29T09:29:07;12.13;;;1.80;;
1955;SDS011;978;48.314;11.562;2022-07-29T09:31:37;12.37;;;2.87;;
1955;SDS011;978;48.314;11.562;2022-07-29T09:34:06;12.10;;;2.27;;
1955;SDS011;978;48.314;11.562;2022-07-29T09:36:38;12.07;;;1.80;;
1955;SDS011;978;48.314;11.562;2022-07-29T09:39:06;12.40;;;2.17;;
1955;SDS011;978;48.314;11.562;2022-07-29T09:41:43;26.63;;;2.57;;
1955;SDS011;978;48.314;11.562;2022-07-29T09:44:12;11.90;;;1.73;;
1955;SDS011;978;48.314;11.562;2022-07-29T09:46:39;12.33;;;2.23;;
1955;SDS011;978;48.314;11.562;2022-07-29T09:49:09;12.30;;;2.10;;
1955;SDS011;978;48.314;11.562;2022-07-29T09:51:37;11.80;;;1.90;;
1955;SDS011;978;48.314;11.562;2022-07-29T09:56:47;11.77;;;2.00;;
1955;SDS011;978;48.314;11.562;2022-07-29T09:59:14;12.07;;;2.30;;
1955;SDS011;978;48.314;11.562;2022-07-29T10:01:41;12.50;;;2.10;;
1955;SDS011;978;48.314;11.562;2022-07-29T10:04:09;12.67;;;2.83;;
1955;SDS011;978;48.314;11.562;2022-07-29T10:06:38;13.47;;;2.30;;
1955;SDS011;978;48.314;11.562;2022-07-29T10:09:22;12.80;;;2.47;;
1955;SDS011;978;48.314;11.562;2022-07-29T10:12:01;17.93;;;3.70;;
1955;SDS011;978;48.314;11.562;2022-07-29T10:14:30;13.33;;;3.27;;
1955;SDS011;978;48.314;11.562;2022-07-29T10:16:57;12.10;;;2.70;;
1955;SDS011;978;48.314;11.562;2022-07-29T10:19:27;13.27;;;4.37;;
1955;SDS011;978;48.314;11.562;2022-07-29T10:21:54;13.30;;;2.77;;
1955;SDS011;978;48.314;11.562;2022-07-29T10:24:22;26.87;;;4.20;;
1955;SDS011;978;48.314;11.562;2022-07-29T10:26:49;18.90;;;5.30;;
1955;SDS011;978;48.314;11.562;2022-07-29T10:29:16;13.93;;;4.57;;
1955;SDS011;978;48.314;11.562;2022-07-29T10:31:43;15.60;;;4.93;;
1955;SDS011;978;48.314;11.562;2022-07-29T10:34:17;18.53;;;4.43;;
1955;SDS011;978;48.314;11.562;2022-07-29T10:36:52;15.03;;;3.80;;
1955;SDS011;978;48.314;11.562;2022-07-29T10:39:29;14.90;;;4.40;;
1955;SDS011;978;48.314;11.562;2022-07-29T10:42:06;13.40;;;4.20;;
1955;SDS011;978;48.314;11.562;2022-07-29T10:44:41;12.93;;;3.90;;
1955;SDS011;978;48.314;11.562;2022-07-29T10:47:18;23.30;;;6.90;;
1955;SDS011;978;48.314;11.562;2022-07-29T10:49:54;16.40;;;4.70;;
1955;SDS011;978;48.314;11.562;2022-07-29T10:52:24;13.40;;;4.13;;
1955;SDS011;978;48.314;11.562;2022-07-29T10:54:53;14.20;;;4.70;;
1955;SDS011;978;48.314;11.562;2022-07-29T10:57:24;13.13;;;3.60;;
1955;SDS011;978;48.314;11.562;2022-07-29T11:02:57;15.83;;;4.33;;
1955;SDS011;978;48.314;11.562;2022-07-29T11:05:25;25.30;;;5.67;;
1955;SDS011;978;48.314;11.562;2022-07-29T11:10:46;12.70;;;3.00;;
1955;SDS011;978;48.314;11.562;2022-07-29T11:16:11;13.07;;;3.87;;
1955;SDS011;978;48.314;11.562;2022-07-29T11:21:44;20.93;;;4.53;;
1955;SDS011;978;48.314;11.562;2022-07-29T11:24:14;15.90;;;4.90;;
1955;SDS011;978;48.314;11.562;2022-07-29T11:26:43;15.87;;;4.07;;
1955;SDS011;978;48.314;11.562;2022-07-29T11:29:17;17.53;;;5.30;;
1955;SDS011;978;48.314;11.562;2022-07-29T11:31:47;14.30;;;3.60;;
1955;SDS011;978;48.314;11.562;2022-07-29T11:34:19;18.03;;;6.00;;
1955;SDS011;978;48.314;11.562;2022-07-29T11:39:41;15.30;;;5.50;;
1955;SDS011;978;48.314;11.562;2022-07-29T11:45:06;13.03;;;3.50;;
1955;SDS011;978;48.314;11.562;2022-07-29T11:47:35;16.70;;;4.17;;
1955;SDS011;978;48.314;11.562;2022-07-29T11:50:04;14.63;;;3.90;;
1955;SDS011;978;48.314;11.562;2022-07-29T11:52:32;13.43;;;3.90;;
1955;SDS011;978;48.314;11.562;2022-07-29T11:55:04;13.60;;;4.37;;
1955;SDS011;978;48.314;11.562;2022-07-29T11:57:33;15.13;;;4.97;;
1955;SDS011;978;48.314;11.562;2022-07-29T12:00:01;13.40;;;3.90;;
1955;SDS011;978;48.314;11.562;2022-07-29T12:02:37;13.20;;;3.13;;
1955;SDS011;978;48.314;11.562;2022-07-29T12:05:07;12.30;;;2.37;;
1955;SDS011;978;48.314;11.562;2022-07-29T12:07:35;12.90;;;3.67;;
1955;SDS011;978;48.314;11.562;2022-07-29T12:10:04;15.77;;;3.50;;
1955;SDS011;978;48.314;11.562;2022-07-29T12:12:32;14.17;;;4.07;;
1955;SDS011;978;48.314;11.562;2022-07-29T12:15:09;17.90;;;5.70;;
1955;SDS011;978;48.314;11.562;2022-07-29T12:17:37;14.70;;;4.60;;
1955;SDS011;978;48.314;11.562;2022-07-29T12:20:05;13.93;;;3.67;;
1955;SDS011;978;48.314;11.562;2022-07-29T12:22:34;13.17;;;3.90;;
1955;SDS011;978;48.314;11.562;2022-07-29T12:25:06;14.67;;;4.30;;
1955;SDS011;978;48.314;11.562;2022-07-29T12:27:34;12.63;;;3.10;;
1955;SDS011;978;48.314;11.562;2022-07-29T12:30:03;14.53;;;3.73;;
1955;SDS011;978;48.314;11.562;2022-07-29T12:32:32;13.33;;;2.97;;
1955;SDS011;978;48.314;11.562;2022-07-29T12:35:01;14.00;;;3.80;;
1955;SDS011;978;48.314;11.562;2022-07-29T12:37:29;16.17;;;3.50;;
1955;SDS011;978;48.314;11.562;2022-07-29T12:39:57;13.40;;;3.33;;
1955;SDS011;978;48.314;11.562;2022-07-29T12:42:25;13.20;;;3.57;;
1955;SDS011;978;48.314;11.562;2022-07-29T12:44:52;19.63;;;3.40;;
1955;SDS011;978;48.314;11.562;2022-07-29T12:47:19;13.23;;;3.10;;
1955;SDS011;978;48.314;11.562;2022-07-29T12:49:46;15.23;;;3.10;;
1955;SDS011;978;48.314;11.562;2022-07-29T12:52:23;14.20;;;4.00;;
1955;SDS011;978;48.314;11.562;2022-07-29T12:54:51;14.53;;;3.77;;
1955;SDS011;978;48.314;11.562;2022-07-29T12:57:18;13.80;;;3.23;;
1955;SDS011;978;48.314;11.562;2022-07-29T12:59:46;15.43;;;4.60;;
1955;SDS011;978;48.314;11.562;2022-07-29T13:02:30;23.60;;;5.33;;
1955;SDS011;978;48.314;11.562;2022-07-29T13:04:57;12.73;;;3.13;;
1955;SDS011;978;48.314;11.562;2022-07-29T13:07:25;13.10;;;2.90;;
1955;SDS011;978;48.314;11.562;2022-07-29T13:09:53;14.83;;;3.90;;
1955;SDS011;978;48.314;11.562;2022-07-29T13:12:20;19.67;;;4.03;;
1955;SDS011;978;48.314;11.562;2022-07-29T13:14:49;13.63;;;3.80;;
1955;SDS011;978;48.314;11.562;2022-07-29T13:17:16;14.30;;;3.33;;
1955;SDS011;978;48.314;11.562;2022-07-29T13:19:46;12.83;;;4.03;;
1955;SDS011;978;48.314;11.562;2022-07-29T13:22:17;12.53;;;2.73;;
1955;SDS011;978;48.314;11.562;2022-07-29T13:24:46;12.60;;;3.67;;
1955;SDS011;978;48.314;11.562;2022-07-29T13:27:14;13.57;;;3.73;;
1955;SDS011;978;48.314;11.562;2022-07-29T13:29:41;15.97;;;4.47;;
1955;SDS011;978;48.314;11.562;2022-07-29T13:32:09;12.43;;;2.80;;
1955;SDS011;978;48.314;11.562;2022-07-29T13:34:36;13.00;;;2.93;;
1955;SDS011;978;48.314;11.562;2022-07-29T13:37:03;13.17;;;3.53;;
1955;SDS011;978;48.314;11.562;2022-07-29T13:39:30;13.27;;;2.97;;
1955;SDS011;978;48.314;11.562;2022-07-29T13:41:57;14.37;;;3.33;;
1955;SDS011;978;48.314;11.562;2022-07-29T13:44:24;16.60;;;3.30;;
1955;SDS011;978;48.314;11.562;2022-07-29T13:46:51;13.60;;;3.67;;
1955;SDS011;978;48.314;11.562;2022-07-29T13:49:19;15.03;;;3.40;;
1955;SDS011;978;48.314;11.562;2022-07-29T13:51:46;11.67;;;2.47;;
1955;SDS011;978;48.314;11.562;2022-07-29T13:54:12;13.23;;;2.47;;
1955;SDS011;978;48.314;11.562;2022-07-29T13:56:39;12.60;;;2.73;;
1955;SDS011;978;48.314;11.562;2022-07-29T13:59:06;11.93;;;2.57;;
1955;SDS011;978;48.314;11.562;2022-07-29T14:01:33;12.73;;;3.27;;
1955;SDS011;978;48.314;11.562;2022-07-29T14:04:00;13.20;;;4.27;;
1955;SDS011;978;48.314;11.562;2022-07-29T14:06:28;12.03;;;2.67;;
1955;SDS011;978;48.314;11.562;2022-07-29T14:08:55;12.80;;;3.77;;
1955;SDS011;978;48.314;11.562;2022-07-29T14:11:22;14.33;;;3.10;;
1955;SDS011;978;48.314;11.562;2022-07-29T14:13:49;17.87;;;3.70;;
1955;SDS011;978;48.314;11.562;2022-07-29T14:16:16;13.33;;;2.73;;
1955;SDS011;978;48.314;11.562;2022-07-29T14:18:43;30.20;;;4.60;;
1955;SDS011;978;48.314;11.562;2022-07-29T14:21:09;14.00;;;3.13;;
1955;SDS011;978;48.314;11.562;2022-07-29T14:23:37;12.77;;;3.30;;
1955;SDS011;978;48.314;11.562;2022-07-29T14:26:04;14.73;;;3.40;;
1955;SDS011;978;48.314;11.562;2022-07-29T14:28:31;12.97;;;2.73;;
1955;SDS011;978;48.314;11.562;2022-07-29T14:30:58;12.43;;;2.77;;
1955;SDS011;978;48.314;11.562;2022-07-29T14:33:25;13.47;;;3.13;;
1955;SDS011;978;48.314;11.562;2022-07-29T14:35:51;13.80;;;3.07;;
1955;SDS011;978;48.314;11.562;2022-07-29T14:38:18;13.27;;;3.00;;
1955;SDS011;978;48.314;11.562;2022-07-29T14:40:46;12.87;;;3.17;;
1955;SDS011;978;48.314;11.562;2022-07-29T14:43:13;12.53;;;3.40;;
1955;SDS011;978;48.314;11.562;2022-07-29T14:45:40;13.27;;;3.43;;
1955;SDS011;978;48.314;11.562;2022-07-29T14:48:07;12.10;;;2.50;;
1955;SDS011;978;48.314;11.562;2022-07-29T14:50:34;12.90;;;3.53;;
1955;SDS011;978;48.314;11.562;2022-07-29T14:53:00;13.50;;;3.40;;
1955;SDS011;978;48.314;11.562;2022-07-29T14:55:27;14.13;;;4.00;;
1955;SDS011;978;48.314;11.562;2022-07-29T14:57:55;12.43;;;2.70;;
1955;SDS011;978;48.314;11.562;2022-07-29T15:00:23;13.47;;;2.90;;
1955;SDS011;978;48.314;11.562;2022-07-29T15:02:51;12.90;;;3.13;;
1955;SDS011;978;48.314;11.562;2022-07-29T15:05:18;13.07;;;2.93;;
1955;SDS011;978;48.314;11.562;2022-07-29T15:07:44;12.70;;;3.20;;
1955;SDS011;978;48.314;11.562;2022-07-29T15:10:11;13.90;;;4.00;;
1955;SDS011;978;48.314;11.562;2022-07-29T15:12:38;13.10;;;3.03;;
1955;SDS011;978;48.314;11.562;2022-07-29T15:15:07;13.07;;;3.50;;
1955;SDS011;978;48.314;11.562;2022-07-29T15:17:34;12.63;;;2.87;;
1955;SDS011;978;48.314;11.562;2022-07-29T15:20:00;14.63;;;3.53;;
1955;SDS011;978;48.314;11.562;2022-07-29T15:22:27;14.20;;;4.40;;
1955;SDS011;978;48.314;11.562;2022-07-29T15:24:54;15.10;;;4.80;;
1955;SDS011;978;48.314;11.562;2022-07-29T15:27:21;12.47;;;2.87;;
1955;SDS011;978;48.314;11.562;2022-07-29T15:29:48;17.10;;;3.33;;